Terminal Aerodrome Forecast
Issued by NWS Quad Cities IA IL

Home | Current Version | Previous Version | Text Only | Print | Product List | Glossary On
Versions: 1 2 3 4 5 6 7 8 9 10 11 12 13 14 15 16 17 18 19 20
000
FTUS43 KDVN 181100
TAFMLI
TAF
KMLI 181136Z 1812/1912 10003KT 5SM BR SKC
      TEMPO 1812/1813 2SM BR SCT002
     FM181400 11004KT P6SM SKC
     FM181700 12007KT P6SM SCT040
     FM190000 11003KT P6SM SKC=

USA.gov is the U.S. government's official web portal to all federal, state and local government web resources and services.